createdAt,value
2017-12-12T00:00:01.213Z,0
2017-12-12T00:00:41.865Z,0
2017-12-12T00:01:22.386Z,0
2017-12-12T00:02:02.963Z,0
2017-12-12T00:02:43.568Z,0
2017-12-12T00:03:24.011Z,0
2017-12-12T00:04:04.565Z,0
2017-12-12T00:04:45.196Z,0
2017-12-12T00:05:25.679Z,0
2017-12-12T00:06:06.260Z,0
2017-12-12T00:06:47.085Z,0
2017-12-12T00:07:27.693Z,0
2017-12-12T00:08:08.179Z,0
2017-12-12T00:08:48.792Z,0
2017-12-12T00:09:29.505Z,0
2017-12-12T00:10:10.024Z,0
2017-12-12T00:10:50.491Z,0
2017-12-12T00:11:34.918Z,0
2017-12-12T00:12:15.455Z,0
2017-12-12T00:12:56.032Z,0
2017-12-12T00:13:36.636Z,0
2017-12-12T00:14:20.635Z,0
2017-12-12T00:15:01.182Z,0
2017-12-12T00:15:41.887Z,0
2017-12-12T00:16:22.442Z,0
2017-12-12T00:17:03.031Z,0
2017-12-12T00:17:43.516Z,0
2017-12-12T00:18:24.078Z,0
2017-12-12T00:19:08.147Z,0
2017-12-12T00:19:48.633Z,0
2017-12-12T00:20:29.183Z,0
2017-12-12T00:21:09.834Z,0
2017-12-12T00:21:50.447Z,0
2017-12-12T00:22:31.048Z,0
2017-12-12T00:23:11.668Z,0
2017-12-12T00:23:52.283Z,0
2017-12-12T00:24:32.832Z,0
2017-12-12T00:25:13.459Z,0
2017-12-12T00:25:53.954Z,0
2017-12-12T00:26:34.534Z,0
2017-12-12T00:27:15.108Z,0
2017-12-12T00:27:55.801Z,0
2017-12-12T00:28:36.355Z,0
2017-12-12T00:29:16.859Z,0
2017-12-12T00:29:57.403Z,0
2017-12-12T00:30:38.063Z,0
2017-12-12T00:31:18.418Z,0
2017-12-12T00:31:58.989Z,0
2017-12-12T00:32:39.564Z,0
2017-12-12T00:33:20.105Z,0
2017-12-12T00:34:02.456Z,0
2017-12-12T00:34:45.233Z,0
2017-12-12T00:35:25.903Z,0
2017-12-12T00:36:10.077Z,0
2017-12-12T00:36:50.535Z,0
2017-12-12T00:37:31.153Z,0
2017-12-12T00:38:11.792Z,0
2017-12-12T00:38:52.286Z,0
2017-12-12T00:39:32.976Z,0
2017-12-12T00:40:17.530Z,0
2017-12-12T00:40:58.138Z,0
2017-12-12T00:41:38.684Z,0
2017-12-12T00:42:19.237Z,0
2017-12-12T00:42:59.810Z,0
2017-12-12T00:43:40.399Z,0
2017-12-12T00:44:20.933Z,0
2017-12-12T00:45:01.488Z,0
2017-12-12T00:45:42.131Z,0
2017-12-12T00:46:22.716Z,0
2017-12-12T00:47:03.233Z,0
2017-12-12T00:47:43.884Z,0
2017-12-12T00:48:24.734Z,0
2017-12-12T00:49:05.269Z,0
2017-12-12T00:49:45.840Z,0
2017-12-12T00:50:26.383Z,0
2017-12-12T00:51:07.037Z,0
2017-12-12T00:51:47.792Z,0
2017-12-12T00:52:33.357Z,0
2017-12-12T00:53:17.317Z,0
2017-12-12T00:53:57.876Z,0
2017-12-12T00:54:38.404Z,0
2017-12-12T00:55:22.845Z,0
2017-12-12T00:56:03.504Z,0
2017-12-12T00:56:44.084Z,0
2017-12-12T00:57:24.681Z,0
2017-12-12T00:58:05.216Z,0
2017-12-12T00:58:45.823Z,0
2017-12-12T00:59:26.534Z,0
2017-12-12T01:00:07.009Z,0
2017-12-12T01:00:47.618Z,0
2017-12-12T01:01:28.187Z,0
2017-12-12T01:02:08.706Z,0
2017-12-12T01:02:49.314Z,0
2017-12-12T01:03:29.899Z,0
2017-12-12T01:04:10.482Z,0
2017-12-12T01:04:51.089Z,0
2017-12-12T01:05:31.729Z,0
2017-12-12T01:06:12.156Z,0
2017-12-12T01:06:52.761Z,0
2017-12-12T01:07:34.469Z,0
2017-12-12T01:08:15.558Z,0
2017-12-12T01:08:58.241Z,0
2017-12-12T01:09:38.714Z,0
2017-12-12T01:10:21.501Z,0
2017-12-12T01:11:02.104Z,0
2017-12-12T01:11:43.626Z,0
2017-12-12T01:12:24.201Z,0
2017-12-12T01:13:04.673Z,0
2017-12-12T01:13:45.265Z,0
2017-12-12T01:14:26.926Z,0
2017-12-12T01:15:07.499Z,0
2017-12-12T01:15:48.023Z,0
2017-12-12T01:16:30.430Z,0
2017-12-12T01:17:10.954Z,0
2017-12-12T01:17:51.548Z,0
2017-12-12T01:18:32.022Z,0
2017-12-12T01:19:12.598Z,0
2017-12-12T01:19:53.191Z,0
2017-12-12T01:20:33.644Z,0
2017-12-12T01:21:14.204Z,0
2017-12-12T01:21:54.765Z,0
2017-12-12T01:22:35.383Z,0
2017-12-12T01:23:15.935Z,0
2017-12-12T01:23:56.418Z,0
2017-12-12T01:24:36.938Z,0
2017-12-12T01:25:17.519Z,0
2017-12-12T01:25:58.081Z,0
2017-12-12T01:26:38.628Z,0
2017-12-12T01:27:19.189Z,0
2017-12-12T01:27:59.692Z,0
2017-12-12T01:28:40.362Z,0
2017-12-12T01:29:20.936Z,0
2017-12-12T01:30:01.572Z,0
2017-12-12T01:30:45.721Z,0
2017-12-12T01:31:26.340Z,0
2017-12-12T01:32:06.919Z,0
2017-12-12T01:32:49.036Z,0
2017-12-12T01:33:32.213Z,0
2017-12-12T01:34:12.069Z,0
2017-12-12T01:34:52.617Z,0
2017-12-12T01:35:33.174Z,0
2017-12-12T01:36:13.729Z,0
2017-12-12T01:36:54.394Z,0
2017-12-12T01:37:38.297Z,0
2017-12-12T01:38:18.754Z,0
2017-12-12T01:38:59.400Z,0
2017-12-12T01:39:40.017Z,0
2017-12-12T01:40:20.529Z,0
2017-12-12T01:41:01.057Z,0
2017-12-12T01:41:41.673Z,0
2017-12-12T01:42:22.211Z,0
2017-12-12T01:43:02.778Z,0
2017-12-12T01:43:43.424Z,0
2017-12-12T01:44:23.979Z,0
2017-12-12T01:45:04.560Z,0
2017-12-12T01:45:45.136Z,0
2017-12-12T01:46:25.722Z,0
2017-12-12T01:47:06.313Z,0
2017-12-12T01:47:46.852Z,0
2017-12-12T01:48:27.409Z,0
2017-12-12T01:49:07.969Z,0
2017-12-12T01:49:48.535Z,0
2017-12-12T01:50:28.993Z,0
2017-12-12T01:51:09.610Z,0
2017-12-12T01:51:53.691Z,0
2017-12-12T01:52:34.223Z,0
2017-12-12T01:53:14.839Z,0
2017-12-12T01:53:55.428Z,0
2017-12-12T01:54:39.528Z,0
2017-12-12T01:55:19.197Z,0
2017-12-12T01:56:00.354Z,0
2017-12-12T01:56:40.910Z,0
2017-12-12T01:57:21.471Z,0
2017-12-12T01:58:02.019Z,0
2017-12-12T01:58:43.932Z,0
2017-12-12T01:59:24.598Z,0
2017-12-12T02:00:05.172Z,0
2017-12-12T02:00:47.310Z,0
2017-12-12T02:01:27.846Z,0
2017-12-12T02:02:08.418Z,0
2017-12-12T02:02:48.956Z,0
2017-12-12T02:03:29.435Z,0
2017-12-12T02:04:10.021Z,0
2017-12-12T02:04:50.619Z,0
2017-12-12T02:05:31.050Z,0
2017-12-12T02:06:11.652Z,0
2017-12-12T02:06:52.134Z,0
2017-12-12T02:07:32.681Z,0
2017-12-12T02:08:13.338Z,0
2017-12-12T02:08:53.865Z,0
2017-12-12T02:09:34.335Z,0
2017-12-12T02:10:14.931Z,0
2017-12-12T02:10:55.429Z,0
2017-12-12T02:11:36.046Z,0
2017-12-12T02:12:16.530Z,0
2017-12-12T02:12:57.093Z,0
2017-12-12T02:13:37.580Z,0
2017-12-12T02:14:18.152Z,0
2017-12-12T02:14:58.644Z,0
2017-12-12T02:15:39.285Z,0
2017-12-12T02:16:19.751Z,0
2017-12-12T02:17:00.348Z,0
2017-12-12T02:17:40.877Z,0
2017-12-12T02:18:24.793Z,0
2017-12-12T02:19:05.321Z,0
2017-12-12T02:19:45.887Z,0
2017-12-12T02:20:26.469Z,0
2017-12-12T02:21:07.077Z,0
2017-12-12T02:21:51.159Z,0
2017-12-12T02:22:30.750Z,0
2017-12-12T02:23:12.413Z,0
2017-12-12T02:23:52.960Z,0
2017-12-12T02:24:33.590Z,0
2017-12-12T02:25:14.097Z,0
2017-12-12T02:25:58.256Z,0
2017-12-12T02:26:38.817Z,0
2017-12-12T02:27:19.384Z,0
2017-12-12T02:27:59.978Z,0
2017-12-12T02:28:40.550Z,0
2017-12-12T02:29:21.049Z,0
2017-12-12T02:30:01.658Z,0
2017-12-12T02:30:42.264Z,0
2017-12-12T02:31:22.735Z,0
2017-12-12T02:32:03.330Z,0
2017-12-12T02:32:43.899Z,0
2017-12-12T02:33:24.388Z,0
2017-12-12T02:34:04.992Z,0
2017-12-12T02:34:45.506Z,0
2017-12-12T02:35:25.987Z,0
2017-12-12T02:36:06.529Z,0
2017-12-12T02:36:47.105Z,0
2017-12-12T02:37:27.721Z,0
2017-12-12T02:38:08.163Z,0
2017-12-12T02:38:48.813Z,0
2017-12-12T02:39:29.331Z,0
2017-12-12T02:40:09.927Z,0
2017-12-12T02:40:50.500Z,0
2017-12-12T02:41:31.050Z,0
2017-12-12T02:42:11.634Z,0
2017-12-12T02:42:52.163Z,0
2017-12-12T02:43:32.754Z,0
2017-12-12T02:44:14.421Z,0
2017-12-12T02:44:55.010Z,0
2017-12-12T02:45:37.839Z,0
2017-12-12T02:46:18.351Z,0
2017-12-12T02:46:58.882Z,0
2017-12-12T02:47:39.568Z,0
2017-12-12T02:48:20.007Z,0
2017-12-12T02:49:03.293Z,0
2017-12-12T02:49:43.386Z,0
2017-12-12T02:50:25.112Z,0
2017-12-12T02:51:05.600Z,0
2017-12-12T02:51:46.163Z,0
2017-12-12T02:52:26.648Z,0
2017-12-12T02:53:07.199Z,0
2017-12-12T02:53:47.703Z,0
2017-12-12T02:54:28.294Z,0
2017-12-12T02:55:08.927Z,0
2017-12-12T02:55:49.436Z,0
2017-12-12T02:56:29.943Z,0
2017-12-12T02:57:14.431Z,0
2017-12-12T02:57:54.921Z,0
2017-12-12T02:58:37.427Z,0
2017-12-12T02:59:17.961Z,0
2017-12-12T02:59:58.542Z,0
2017-12-12T03:00:39.032Z,0
2017-12-12T03:01:19.702Z,0
2017-12-12T03:02:00.205Z,0
2017-12-12T03:02:40.687Z,0
2017-12-12T03:03:21.236Z,0
2017-12-12T03:04:01.819Z,0
2017-12-12T03:04:42.354Z,0
2017-12-12T03:05:22.895Z,0
2017-12-12T03:06:03.418Z,0
2017-12-12T03:06:47.618Z,0
2017-12-12T03:07:28.112Z,0
2017-12-12T03:08:08.682Z,0
2017-12-12T03:08:49.284Z,0
2017-12-12T03:09:33.522Z,0
2017-12-12T03:10:14.052Z,0
2017-12-12T03:10:54.637Z,0
2017-12-12T03:11:35.172Z,0
2017-12-12T03:12:19.081Z,0
2017-12-12T03:12:59.644Z,0
2017-12-12T03:13:40.211Z,0
2017-12-12T03:14:20.738Z,0
2017-12-12T03:15:01.299Z,0
2017-12-12T03:15:41.797Z,0
2017-12-12T03:16:22.506Z,0
2017-12-12T03:17:02.956Z,0
2017-12-12T03:17:43.857Z,0
2017-12-12T03:18:24.547Z,0
2017-12-12T03:19:05.110Z,0
2017-12-12T03:19:45.641Z,0
2017-12-12T03:20:26.217Z,0
2017-12-12T03:21:06.806Z,0
2017-12-12T03:21:47.488Z,0
2017-12-12T03:22:27.946Z,0
2017-12-12T03:23:08.575Z,0
2017-12-12T03:23:49.022Z,0
2017-12-12T03:24:29.589Z,0
2017-12-12T03:25:10.126Z,0
2017-12-12T03:25:54.264Z,0
2017-12-12T03:26:35.118Z,0
2017-12-12T03:27:15.627Z,0
2017-12-12T03:27:56.184Z,0
2017-12-12T03:28:40.332Z,0
2017-12-12T03:29:21.023Z,0
2017-12-12T03:30:01.531Z,0
2017-12-12T03:30:42.169Z,0
2017-12-12T03:31:26.322Z,0
2017-12-12T03:32:06.934Z,0
2017-12-12T03:32:47.361Z,0
2017-12-12T03:33:27.902Z,0
2017-12-12T03:34:08.429Z,0
2017-12-12T03:34:49.097Z,0
2017-12-12T03:35:29.631Z,0
2017-12-12T03:36:10.205Z,0
2017-12-12T03:36:50.744Z,0
2017-12-12T03:37:31.254Z,0
2017-12-12T03:38:11.822Z,0
2017-12-12T03:38:52.447Z,0
2017-12-12T03:39:32.930Z,0
2017-12-12T03:40:13.527Z,0
2017-12-12T03:40:53.975Z,0
2017-12-12T03:41:34.585Z,0
2017-12-12T03:42:15.099Z,0
2017-12-12T03:42:55.621Z,0
2017-12-12T03:43:36.094Z,0
2017-12-12T03:44:16.658Z,0
2017-12-12T03:44:57.187Z,0
2017-12-12T03:45:41.312Z,0
2017-12-12T03:46:21.859Z,0
2017-12-12T03:47:02.335Z,0
2017-12-12T03:47:42.873Z,0
2017-12-12T03:48:26.993Z,0
2017-12-12T03:49:07.585Z,0
2017-12-12T03:49:48.387Z,0
2017-12-12T03:50:28.894Z,0
2017-12-12T03:51:09.494Z,0
2017-12-12T03:51:49.997Z,0
2017-12-12T03:52:34.133Z,0
2017-12-12T03:53:14.651Z,0
2017-12-12T03:53:55.172Z,0
2017-12-12T03:54:35.797Z,0
2017-12-12T03:55:16.224Z,0
2017-12-12T03:55:56.776Z,0
2017-12-12T03:56:37.347Z,0
2017-12-12T03:57:17.893Z,0
2017-12-12T03:59:40.388Z,0
2017-12-12T04:01:11.344Z,0
2017-12-12T04:43:24.536Z,0
2017-12-12T04:44:07.911Z,0
2017-12-12T04:44:49.429Z,0
2017-12-12T04:45:29.817Z,0
2017-12-12T04:46:11.572Z,0
2017-12-12T04:46:52.374Z,0
2017-12-12T04:47:32.723Z,0
2017-12-12T04:48:13.288Z,0
2017-12-12T04:48:53.754Z,0
2017-12-12T04:49:34.662Z,0
2017-12-12T04:50:15.366Z,0
2017-12-12T04:50:56.366Z,0
2017-12-12T04:51:37.482Z,0
2017-12-12T04:52:18.502Z,0
2017-12-12T04:52:58.697Z,0
2017-12-12T04:53:39.678Z,0
2017-12-12T04:54:20.150Z,0
2017-12-12T04:55:00.609Z,0
2017-12-12T04:55:41.240Z,0
2017-12-12T04:56:22.151Z,0
2017-12-12T04:57:02.531Z,0
2017-12-12T04:57:42.986Z,0
2017-12-12T04:58:24.175Z,0
2017-12-12T04:59:04.846Z,0
2017-12-12T04:59:45.337Z,0
2017-12-12T05:00:25.692Z,0
2017-12-12T05:01:07.233Z,0
2017-12-12T05:01:48.159Z,0
2017-12-12T05:02:28.750Z,0
2017-12-12T05:03:09.107Z,0
2017-12-12T05:03:49.779Z,0
2017-12-12T05:04:30.323Z,0
2017-12-12T05:05:11.605Z,0
2017-12-12T05:05:52.435Z,0
2017-12-12T05:06:33.007Z,0
2017-12-12T05:07:13.431Z,0
2017-12-12T05:07:54.562Z,0
2017-12-12T05:08:34.659Z,0
2017-12-12T05:09:15.509Z,0
2017-12-12T05:09:56.085Z,0
2017-12-12T05:10:36.512Z,0
2017-12-12T05:11:16.930Z,0
2017-12-12T05:11:57.226Z,0
2017-12-12T05:12:37.907Z,0
2017-12-12T05:13:18.225Z,0
2017-12-12T05:13:59.065Z,0
2017-12-12T05:14:42.121Z,0
2017-12-12T05:15:22.706Z,0
2017-12-12T05:16:03.130Z,0
2017-12-12T05:16:44.374Z,0
2017-12-12T05:17:24.583Z,0
2017-12-12T05:18:05.150Z,0
2017-12-12T05:18:46.700Z,0
2017-12-12T05:19:27.334Z,0
2017-12-12T05:20:08.051Z,0
2017-12-12T05:20:48.742Z,0
2017-12-12T05:21:29.146Z,0
2017-12-12T05:22:10.273Z,0
2017-12-12T05:22:51.049Z,0
2017-12-12T05:23:32.682Z,0
2017-12-12T05:24:13.845Z,0
2017-12-12T05:24:54.182Z,0
2017-12-12T05:25:35.095Z,0
2017-12-12T05:29:30.868Z,0
2017-12-12T05:32:17.233Z,0
2017-12-12T05:32:58.890Z,0
2017-12-12T05:33:40.209Z,0
2017-12-12T05:34:19.936Z,0
2017-12-12T05:35:00.298Z,0
2017-12-12T05:35:44.732Z,0
2017-12-12T05:36:22.890Z,0
2017-12-12T05:37:03.601Z,0
2017-12-12T05:37:44.062Z,0
2017-12-12T05:38:24.651Z,0
2017-12-12T05:39:04.906Z,0
2017-12-12T05:39:45.330Z,0
2017-12-12T05:40:25.973Z,0
2017-12-12T05:41:06.368Z,0
2017-12-12T05:41:47.905Z,0
2017-12-12T05:42:28.173Z,0
2017-12-12T05:43:08.833Z,0
2017-12-12T05:43:49.221Z,0
2017-12-12T05:44:30.506Z,0
2017-12-12T05:45:11.154Z,0
2017-12-12T05:45:51.912Z,0
2017-12-12T05:46:32.258Z,0
2017-12-12T05:47:12.781Z,0
2017-12-12T05:47:54.078Z,0
2017-12-12T05:48:34.445Z,0
2017-12-12T05:49:15.971Z,0
2017-12-12T05:49:56.581Z,0
2017-12-12T05:50:37.586Z,0
2017-12-12T05:51:18.101Z,0
2017-12-12T05:51:58.580Z,0
2017-12-12T05:52:39.678Z,0
2017-12-12T05:53:20.401Z,0
2017-12-12T05:54:00.723Z,0
2017-12-12T05:54:41.150Z,0
2017-12-12T05:55:21.759Z,0
2017-12-12T05:56:02.231Z,0
2017-12-12T05:56:42.873Z,0
2017-12-12T05:57:23.494Z,0
2017-12-12T05:58:05.346Z,0
2017-12-12T05:58:45.980Z,0
2017-12-12T05:59:26.463Z,0
2017-12-12T06:00:07.368Z,0
2017-12-12T06:00:48.075Z,0
2017-12-12T06:01:28.565Z,0
2017-12-12T06:02:09.063Z,0
2017-12-12T06:02:49.498Z,0
2017-12-12T06:03:30.336Z,0
2017-12-12T06:04:10.768Z,0
2017-12-12T06:04:51.284Z,0
2017-12-12T06:05:31.654Z,0
2017-12-12T06:06:12.449Z,0
2017-12-12T06:06:52.717Z,0
2017-12-12T06:07:33.738Z,0
2017-12-12T06:08:13.812Z,0
2017-12-12T06:08:54.683Z,0
2017-12-12T06:09:35.966Z,0
2017-12-12T06:10:16.327Z,0
2017-12-12T06:10:57.759Z,0
2017-12-12T06:15:08.602Z,0
2017-12-12T06:16:02.599Z,0
2017-12-12T06:18:20.673Z,0
2017-12-12T06:19:02.753Z,0
2017-12-12T06:19:42.751Z,0
2017-12-12T06:20:23.435Z,0
2017-12-12T06:21:03.818Z,0
2017-12-12T06:21:45.964Z,0
2017-12-12T06:22:26.599Z,0
2017-12-12T06:23:07.009Z,0
2017-12-12T06:23:47.940Z,0
2017-12-12T06:24:28.941Z,0
2017-12-12T06:25:09.392Z,0
2017-12-12T06:25:50.659Z,0
2017-12-12T06:26:32.389Z,0
2017-12-12T06:27:13.006Z,0
2017-12-12T06:27:53.823Z,0
2017-12-12T06:28:35.045Z,0
2017-12-12T06:29:16.746Z,0
2017-12-12T06:29:57.586Z,0
2017-12-12T06:30:38.044Z,0
2017-12-12T06:31:18.407Z,0
2017-12-12T06:31:59.353Z,0
2017-12-12T06:32:41.050Z,0
2017-12-12T06:33:21.400Z,0
2017-12-12T06:34:02.004Z,0
2017-12-12T06:34:42.596Z,0
2017-12-12T06:35:23.076Z,0
2017-12-12T06:36:03.481Z,0
2017-12-12T06:36:43.953Z,0
2017-12-12T06:37:24.238Z,0
2017-12-12T06:38:05.491Z,0
2017-12-12T06:38:49.743Z,0
2017-12-12T06:39:28.470Z,0
2017-12-12T06:40:08.908Z,0
2017-12-12T06:40:49.255Z,0
2017-12-12T06:41:29.671Z,0
2017-12-12T06:42:10.099Z,0
2017-12-12T06:42:51.123Z,0
2017-12-12T06:43:31.462Z,0
2017-12-12T06:44:11.876Z,0
2017-12-12T06:44:52.250Z,0
2017-12-12T06:45:32.630Z,0
2017-12-12T06:46:13.075Z,0
2017-12-12T06:46:53.514Z,0
2017-12-12T06:47:34.694Z,0
2017-12-12T06:48:14.681Z,0
2017-12-12T06:48:55.610Z,0
2017-12-12T06:49:36.224Z,0
2017-12-12T06:50:17.701Z,0
2017-12-12T06:50:57.583Z,0
2017-12-12T06:55:25.564Z,0
2017-12-12T06:56:05.933Z,0
2017-12-12T06:56:46.669Z,0
2017-12-12T06:57:27.318Z,0
2017-12-12T06:58:08.046Z,0
2017-12-12T06:58:49.110Z,0
2017-12-12T06:59:29.557Z,0
2017-12-12T07:00:11.123Z,0
2017-12-12T07:00:51.625Z,0
2017-12-12T07:01:32.434Z,0
2017-12-12T07:02:16.253Z,0
2017-12-12T07:02:57.070Z,0
2017-12-12T07:03:37.521Z,0
2017-12-12T07:04:18.264Z,0
2017-12-12T07:05:01.133Z,0
2017-12-12T07:05:42.729Z,0
2017-12-12T07:06:24.358Z,0
2017-12-12T07:07:06.441Z,0
2017-12-12T07:07:46.965Z,0
2017-12-12T07:08:27.385Z,0
2017-12-12T07:09:07.809Z,4
2017-12-12T07:09:48.237Z,4
2017-12-12T07:10:28.703Z,4
2017-12-12T07:11:09.130Z,0
2017-12-12T07:11:49.539Z,4
2017-12-12T07:12:30.006Z,4
2017-12-12T07:13:10.361Z,4
2017-12-12T07:13:50.768Z,4
2017-12-12T07:14:31.150Z,4
2017-12-12T07:15:11.578Z,4
2017-12-12T07:15:52.040Z,8
2017-12-12T07:16:37.249Z,8
2017-12-12T07:17:17.756Z,8
2017-12-12T07:17:58.294Z,8
2017-12-12T07:18:38.762Z,8
2017-12-12T07:19:19.113Z,8
2017-12-12T07:19:59.557Z,12
2017-12-12T07:20:40.617Z,12
2017-12-12T07:21:21.040Z,8
2017-12-12T07:22:02.008Z,12
2017-12-12T07:22:42.444Z,12
2017-12-12T07:23:23.184Z,12
2017-12-12T07:24:04.037Z,12
2017-12-12T07:24:45.120Z,20
2017-12-12T07:25:26.538Z,20
2017-12-12T07:26:06.928Z,24
2017-12-12T07:26:49.291Z,32
2017-12-12T07:27:29.879Z,40
2017-12-12T07:28:10.356Z,44
2017-12-12T07:28:50.790Z,48
2017-12-12T07:29:31.310Z,48
2017-12-12T07:30:11.883Z,52
2017-12-12T07:30:53.764Z,52
2017-12-12T07:31:34.167Z,56
2017-12-12T07:32:14.872Z,60
2017-12-12T10:48:37.666Z,1148
2017-12-12T10:49:18.114Z,1096
2017-12-12T10:49:58.431Z,1048
2017-12-12T10:50:39.404Z,932
2017-12-12T10:51:19.867Z,872
2017-12-12T10:52:00.320Z,852
2017-12-12T10:52:40.793Z,840
2017-12-12T10:53:21.308Z,796
2017-12-12T10:54:01.703Z,764
2017-12-12T10:54:42.196Z,908
2017-12-12T10:55:22.680Z,776
2017-12-12T10:56:03.081Z,748
2017-12-12T10:56:43.531Z,696
2017-12-12T10:57:23.924Z,636
2017-12-12T10:58:04.755Z,608
2017-12-12T10:58:45.592Z,524
2017-12-12T10:59:26.021Z,460
2017-12-12T11:00:06.567Z,404
2017-12-12T11:00:47.510Z,376
2017-12-12T11:01:27.962Z,364
2017-12-12T11:02:08.924Z,372
2017-12-12T11:02:49.222Z,392
2017-12-12T11:03:29.729Z,416
2017-12-12T11:04:10.551Z,432
2017-12-12T11:04:50.745Z,436
2017-12-12T11:05:31.711Z,440
2017-12-12T11:06:12.784Z,440
2017-12-12T11:06:53.396Z,396
2017-12-12T11:07:33.886Z,368
2017-12-12T11:08:15.821Z,368
2017-12-12T11:08:56.471Z,380
2017-12-12T11:09:38.072Z,388
2017-12-12T11:10:18.098Z,424
2017-12-12T11:10:58.899Z,444
2017-12-12T11:11:41.310Z,456
2017-12-12T11:12:21.652Z,460
2017-12-12T11:13:02.782Z,500
2017-12-12T11:13:43.950Z,544
2017-12-12T11:14:25.424Z,608
2017-12-12T11:15:06.280Z,588
2017-12-12T11:15:47.438Z,544
2017-12-12T11:16:30.202Z,544
2017-12-12T11:17:10.553Z,556
2017-12-12T11:17:51.396Z,460
2017-12-12T11:18:32.330Z,396
2017-12-12T11:19:12.994Z,340
2017-12-12T11:19:54.382Z,308
2017-12-12T11:20:35.614Z,296
2017-12-12T11:21:16.047Z,268
2017-12-12T11:21:56.673Z,244
2017-12-12T11:22:37.524Z,232
2017-12-12T11:23:17.959Z,232
2017-12-12T11:23:58.624Z,240
2017-12-12T11:24:39.355Z,232
2017-12-12T11:25:20.872Z,224
2017-12-12T11:26:02.334Z,220
2017-12-12T11:26:42.865Z,232
2017-12-12T11:27:25.870Z,228
2017-12-12T11:28:09.575Z,240
2017-12-12T11:28:53.724Z,248
2017-12-12T11:32:45.601Z,336
2017-12-12T11:33:43.469Z,376
2017-12-12T11:34:50.378Z,448
2017-12-12T11:35:58.468Z,440
2017-12-12T11:36:56.110Z,396
2017-12-12T11:37:54.412Z,412
2017-12-12T11:38:50.482Z,392
2017-12-12T11:43:44.040Z,220
2017-12-12T11:45:13.244Z,196
2017-12-12T11:47:21.038Z,236
2017-12-12T11:48:02.875Z,224
2017-12-12T11:48:46.115Z,212
2017-12-12T11:49:26.761Z,240
2017-12-12T11:50:07.365Z,284
2017-12-12T11:50:48.471Z,304
2017-12-12T11:53:17.914Z,268
2017-12-12T11:54:14.993Z,288
2017-12-12T11:55:08.302Z,284
2017-12-12T11:56:04.570Z,308
2017-12-12T11:57:03.215Z,384
2017-12-12T11:57:56.624Z,412
2017-12-12T11:58:52.346Z,380
2017-12-12T11:59:45.579Z,416
2017-12-12T12:00:38.261Z,448
2017-12-12T12:01:35.347Z,452
2017-12-12T12:10:54.555Z,456
2017-12-12T12:11:34.834Z,484
2017-12-12T12:12:19.006Z,504
2017-12-12T12:12:58.761Z,496
2017-12-12T12:13:39.445Z,480
2017-12-12T12:14:20.235Z,484
2017-12-12T12:15:03.571Z,488
2017-12-12T12:15:44.284Z,464
2017-12-12T12:16:24.910Z,424
2017-12-12T12:17:06.213Z,392
2017-12-12T12:17:48.256Z,396
2017-12-12T12:18:29.194Z,384
2017-12-12T12:19:11.517Z,320
2017-12-12T12:19:53.674Z,276
2017-12-12T12:20:34.757Z,260
2017-12-12T12:21:16.142Z,240
2017-12-12T12:21:59.161Z,228
2017-12-12T12:22:39.528Z,244
2017-12-12T12:23:21.083Z,256
2017-12-12T12:24:02.409Z,252
2017-12-12T12:24:44.151Z,272
2017-12-12T12:25:26.470Z,284
2017-12-12T12:26:07.525Z,296
2017-12-12T12:26:48.677Z,276
2017-12-12T12:27:29.699Z,252
2017-12-12T12:28:11.697Z,228
2017-12-12T12:28:51.871Z,212
2017-12-12T12:29:34.720Z,204
2017-12-12T12:30:17.149Z,192
2017-12-12T12:30:57.183Z,204
2017-12-12T12:31:39.296Z,232
2017-12-12T12:32:19.140Z,232
2017-12-12T12:33:00.672Z,240
2017-12-12T12:33:41.166Z,256
2017-12-12T12:34:22.042Z,260
2017-12-12T12:35:02.607Z,240
2017-12-12T12:35:44.827Z,228
2017-12-12T12:36:25.252Z,224
2017-12-12T12:37:05.691Z,224
2017-12-12T12:37:46.133Z,236
2017-12-12T12:38:27.108Z,228
2017-12-12T12:39:07.822Z,208
2017-12-12T12:39:48.674Z,180
2017-12-12T12:40:29.148Z,152
2017-12-12T12:41:09.452Z,140
2017-12-12T12:41:50.103Z,160
2017-12-12T12:42:31.303Z,156
2017-12-12T12:43:13.242Z,148
2017-12-12T12:43:54.213Z,140
2017-12-12T12:44:34.724Z,148
2017-12-12T12:45:15.367Z,168
2017-12-12T12:45:56.873Z,172
2017-12-12T12:46:38.440Z,172
2017-12-12T12:47:19.392Z,184
2017-12-12T12:48:00.307Z,212
2017-12-12T12:48:43.948Z,228
2017-12-12T12:49:24.903Z,248
2017-12-12T12:50:05.031Z,252
2017-12-12T12:50:45.637Z,216
2017-12-12T12:51:26.113Z,188
2017-12-12T12:52:07.087Z,168
2017-12-12T12:52:47.747Z,140
2017-12-12T12:53:27.932Z,144
2017-12-12T12:54:09.123Z,140
2017-12-12T12:54:49.709Z,156
2017-12-12T12:55:31.175Z,180
2017-12-12T12:56:11.407Z,196
2017-12-12T12:56:52.675Z,200
2017-12-12T12:57:32.864Z,244
2017-12-12T12:58:14.393Z,272
2017-12-12T12:58:55.489Z,232
2017-12-12T12:59:36.873Z,208
2017-12-12T13:00:18.672Z,200
2017-12-12T13:01:00.736Z,196
2017-12-12T13:01:41.265Z,208
2017-12-12T13:02:22.632Z,212
2017-12-12T13:03:06.573Z,240
2017-12-12T13:03:47.912Z,268
2017-12-12T13:04:30.405Z,336
2017-12-12T13:05:11.269Z,360
2017-12-12T13:05:52.086Z,356
2017-12-12T13:06:33.201Z,400
2017-12-12T13:07:14.006Z,388
2017-12-12T13:07:54.519Z,360
2017-12-12T13:08:35.853Z,352
2017-12-12T13:09:16.475Z,340
2017-12-12T13:09:57.281Z,328
2017-12-12T13:10:38.090Z,328
2017-12-12T13:11:19.998Z,332
2017-12-12T13:11:59.719Z,340
2017-12-12T13:12:40.896Z,316
2017-12-12T13:13:22.613Z,312
2017-12-12T13:14:05.363Z,308
2017-12-12T13:14:45.840Z,312
2017-12-12T13:15:27.550Z,292
2017-12-12T13:16:08.738Z,280
2017-12-12T13:16:49.823Z,260
2017-12-12T13:17:30.569Z,244
2017-12-12T13:18:11.776Z,228
2017-12-12T13:18:52.414Z,204
2017-12-12T13:19:33.776Z,204
2017-12-12T13:20:14.371Z,224
2017-12-12T13:21:05.045Z,232
2017-12-12T13:21:45.877Z,236
2017-12-12T13:22:26.437Z,252
2017-12-12T13:23:06.928Z,264
2017-12-12T13:23:47.498Z,288
2017-12-12T13:24:28.590Z,280
2017-12-12T13:25:09.839Z,260
2017-12-12T13:25:52.301Z,252
2017-12-12T13:26:33.081Z,244
2017-12-12T13:27:13.355Z,268
2017-12-12T13:27:56.029Z,312
2017-12-12T13:28:36.420Z,316
2017-12-12T13:29:16.931Z,316
2017-12-12T13:29:58.414Z,304
2017-12-12T13:30:40.979Z,328
2017-12-12T13:31:21.508Z,344
2017-12-12T13:32:02.439Z,348
2017-12-12T13:32:43.135Z,348
2017-12-12T13:33:23.858Z,340
2017-12-12T13:34:04.696Z,324
2017-12-12T13:34:45.415Z,300
2017-12-12T13:35:26.843Z,280
2017-12-12T13:36:07.365Z,252
2017-12-12T13:36:50.183Z,224
2017-12-12T13:37:31.621Z,216
2017-12-12T13:38:12.374Z,212
2017-12-12T13:38:53.183Z,208
2017-12-12T13:39:33.633Z,208
2017-12-12T13:40:14.818Z,208
2017-12-12T13:40:55.547Z,200
2017-12-12T13:41:35.955Z,196
2017-12-12T13:42:16.510Z,192
2017-12-12T13:42:57.118Z,184
2017-12-12T13:43:37.757Z,200
2017-12-12T13:44:18.255Z,220
2017-12-12T13:44:59.020Z,240
2017-12-12T13:45:39.426Z,252
2017-12-12T13:46:20.077Z,260
2017-12-12T13:47:00.563Z,264
2017-12-12T13:47:41.298Z,264
2017-12-12T13:48:21.778Z,264
2017-12-12T13:49:02.581Z,272
2017-12-12T13:49:43.007Z,264
2017-12-12T13:50:23.649Z,248
2017-12-12T13:51:04.823Z,248
2017-12-12T13:51:45.538Z,268
2017-12-12T13:55:27.715Z,212
2017-12-12T14:06:31.190Z,212
2017-12-12T14:12:15.114Z,264
2017-12-12T14:20:36.380Z,336
2017-12-12T14:21:32.875Z,320
2017-12-12T14:22:28.858Z,288
2017-12-12T14:32:18.025Z,180
2017-12-12T14:33:11.448Z,152
2017-12-12T14:34:07.071Z,156
2017-12-12T14:35:03.229Z,160
2017-12-12T14:35:56.465Z,152
2017-12-12T14:36:50.637Z,148
2017-12-12T14:37:43.868Z,152
2017-12-12T14:38:36.093Z,156
2017-12-12T14:39:28.416Z,168
2017-12-12T14:40:20.929Z,164
2017-12-12T14:41:15.787Z,160
2017-12-12T14:42:09.630Z,164
2017-12-12T14:43:00.123Z,172
2017-12-12T14:43:42.454Z,160
2017-12-12T14:44:23.037Z,160
2017-12-12T14:45:03.795Z,168
2017-12-12T14:45:44.103Z,172
2017-12-12T14:46:24.541Z,188
2017-12-12T14:47:05.216Z,140
2017-12-12T14:47:46.094Z,132
2017-12-12T14:48:26.457Z,136
2017-12-12T14:49:07.088Z,128
2017-12-12T14:49:48.244Z,132
2017-12-12T14:50:28.474Z,104
2017-12-12T14:51:11.639Z,88
2017-12-12T14:51:52.776Z,104
2017-12-12T14:52:33.521Z,96
2017-12-12T14:53:13.840Z,80
2017-12-12T14:53:54.292Z,80
2017-12-12T14:54:34.683Z,92
2017-12-12T14:55:15.116Z,72
2017-12-12T14:55:55.414Z,60
2017-12-12T14:56:36.007Z,64
2017-12-12T14:57:16.289Z,80
2017-12-12T14:57:56.718Z,84
2017-12-12T14:58:37.193Z,72
2017-12-12T14:59:17.719Z,64
2017-12-12T14:59:58.856Z,60
2017-12-12T15:00:40.051Z,64
2017-12-12T15:01:20.463Z,72
2017-12-12T15:02:01.008Z,68
2017-12-12T15:02:41.430Z,64
2017-12-12T15:03:21.906Z,56
2017-12-12T15:04:02.431Z,56
2017-12-12T15:04:45.319Z,52
2017-12-12T15:05:24.887Z,56
2017-12-12T15:06:06.605Z,64
2017-12-12T15:06:48.366Z,76
2017-12-12T15:07:28.252Z,72